Ora Direzione Vento Velocita' Vento Media Vento Raffica Max. Temperatura Wind Chill Pioggia Pressione
20:43:47.0157 °(SSE)0.0 Kts0.0 Kts10.4 Kts23.0 °C23.0 °C0.0 mm994.4 Hpa
20:23:28.0110 °(ESE)5.2 Kts6.1 Kts10.4 Kts23.2 °C21.9 °C0.0 mm994.6 Hpa
20:03:13.0119 °(ESE)7.8 Kts7.8 Kts10.4 Kts23.3 °C21.2 °C0.0 mm994.5 Hpa
19:42:55.0120 °(ESE)9.6 Kts8.7 Kts10.4 Kts23.2 °C20.7 °C0.0 mm994.8 Hpa
19:23:43.0117 °(ESE)7.8 Kts7.8 Kts9.6 Kts23.2 °C21.2 °C0.0 mm994.5 Hpa
19:03:18.0108 °(ESE)7.0 Kts7.8 Kts9.6 Kts23.1 °C21.1 °C0.0 mm994.7 Hpa
18:42:58.0115 °(ESE)7.8 Kts7.8 Kts9.6 Kts23.0 °C21.0 °C0.0 mm994.7 Hpa
18:23:42.0113 °(ESE)8.7 Kts7.8 Kts9.6 Kts23.0 °C21.0 °C0.0 mm994.8 Hpa
18:03:27.0115 °(ESE)7.8 Kts7.0 Kts9.6 Kts23.1 °C21.4 °C0.0 mm995.0 Hpa
17:43:06.0103 °(ESE)7.0 Kts7.0 Kts9.6 Kts22.9 °C21.3 °C0.0 mm995.2 Hpa
17:22:44.098 °(E)7.0 Kts7.8 Kts9.6 Kts23.1 °C21.0 °C0.0 mm995.2 Hpa
17:03:27.098 °(E)7.0 Kts6.1 Kts9.6 Kts23.1 °C21.8 °C0.0 mm995.5 Hpa
16:42:00.098 °(E)5.2 Kts7.0 Kts9.6 Kts22.9 °C21.2 °C0.0 mm995.5 Hpa
16:22:43.094 °(E)6.1 Kts7.0 Kts9.6 Kts22.8 °C21.1 °C0.0 mm995.5 Hpa
16:03:27.093 °(E)7.0 Kts6.1 Kts9.6 Kts22.7 °C21.4 °C0.0 mm995.7 Hpa
15:43:15.089 °(E)7.0 Kts7.0 Kts9.6 Kts22.6 °C20.9 °C0.0 mm995.9 Hpa
15:23:02.098 °(E)7.0 Kts7.0 Kts9.6 Kts22.6 °C20.9 °C0.0 mm995.9 Hpa
15:02:43.095 °(E)7.0 Kts7.8 Kts9.6 Kts22.6 °C20.4 °C0.0 mm996.0 Hpa
14:43:47.091 °(E)6.1 Kts7.8 Kts9.6 Kts22.6 °C20.5 °C0.0 mm996.1 Hpa
14:22:50.087 °(E)7.0 Kts7.0 Kts9.6 Kts22.7 °C21.0 °C0.0 mm996.2 Hpa